Oran, IA (50664)

8:22 PM CDT on July 25, 2014 (GMT -0500)
Maplewood Dr (KIAOELWE2) Elev 1135 ft | 42.69 °N, 91.91 °W | Change Station

Current weather conditions updated 2 seconds ago

Overcast
Overcast
73.3 °F
Feels Like 73 °F
N
2.7
Wind Variable Wind from SE
Gusts 4.9 mph

Tomorrow is forecast to be Warmer than today.

Today
High -- | Low -- °F
--% Chance of Precip.
Yesterday
High -- | Low -- °F
Precip. -- in
5:52 AM 8:35 PM
Waning Crescent, 1% visible
Pressure 29.84 in
Visibility 10.0 miles
Clouds Overcast 2000 ft
Heat Index 73 °F
Dew Point 67 °F
Humidity 81%
Rainfall 0.62 in
Snow Depth Not available.
UV 0 out of 12
Pollen 3.40 out of 12
Air Quality Not available.
Flu Activity Not available.
METAR KOLZ 260115Z AUTO 14009KT 10SM OVC020 22/20 A2984 RMK AO2

More Conditions Fewer Conditions

Pressure 29.84 in
Visibility 10.0 miles
Clouds Overcast 2000 ft
Heat Index 73 °F
Dew Point 67 °F
Humidity 81%
Rainfall 0.62 in
Snow Depth Not available.
UV 0 out of 12
Pollen 3.40 out of 12
Air Quality Not available.
Flu Activity Not available.
METAR KOLZ 260115Z AUTO 14009KT 10SM OVC020 22/20 A2984 RMK AO2

More Conditions Fewer Conditions

10-Day Weather Forecast

Almanac

Astronomy

Jul. 25, 2014 Rise Set
Actual Time 5:52 AM CDT 8:35 PM CDT
Civil Twilight 5:19 AM CDT 9:08 PM CDT
Nautical Twilight 4:37 AM CDT 9:49 PM CDT
Astronomical Twilight 3:50 AM CDT 10:36 PM CDT
Moon 4:52 AM CDT (7/25) 7:31 PM CDT (7/25)
Length of Visible Light 15h 48m
Length of Day
14h 43m
Tomorrow will be 1m 58s shorter.
Waning Crescent, 1% of the Moon is Illuminated
Today
Waning Crescent
Jul 26
New
Aug 3
First Quarter
Aug 10
Full
Aug 17
Last Quarter

Today's Extremes

State Highs State Lows

Community

WunderPhotos

Upload Photos

1,737,459 photos uploaded!

Nearby

Snow Depth

Station Depth Elevation
No new snow has been reported.

Earthquake Activity

City Distance Mag. Time & Date
No recent earthquake activity has been reported nearby.
Minimum magnitude displayed is 2.5.

Coastal Water Temperatures

Place Temperature
No Stations Reporting

Nearby Weather Stations

Station Location Temp. Heat Index Dew Point Humidity Wind Precip. Elev Updated Type
Maplewood Dr, Oelwein, IA 73.3 °F 73 °F 67 °F 81% SE  at  2.7 mph 0.00 in / hr 1135 ft 8:22 PM CDT Rapid Fire
Northridge Addition, Independence, IA 72.0 °F 71 °F 67 °F 84% SE  at  1.6 mph 0.00 in / hr 929 ft 8:21 PM CDT Rapid Fire
Hawkeye, IA 70.9 °F - 66 °F 85% SSW  at  13.4 mph 0.00 in / hr 1161 ft 8:22 PM CDT Rapid Fire
Terrace Drive SE, Independence, IA 71.2 °F 70 °F 66 °F 85% South  at  0.0 mph 0.00 in / hr 940 ft 8:22 PM CDT Rapid Fire
Strawberry Point, IA 69.4 °F - 67 °F 91% SE  at  8.0 mph 0.00 in / hr 1220 ft 8:18 PM CDT Normal
Radio Station N0VTZ; 5 Mi. North of, Sumner, IA 70.9 °F - -35 °F - SSE  at  0.0 mph 0.00 in / hr 1145 ft 8:22 PM CDT Rapid Fire

Show More Stations Show Fewer Stations